Time;durP1;ratioP1;P1;durP2;ratioP2;P2;SDS_P1;SDS_P2;PMS_P1;PMS_P2;Temp;Humidity;BMP_temperature;BMP_pressure;BME280_temperature;BME280_humidity;BME280_pressure;Samples;Min_cycle;Max_cycle;Signal;HPM_P1;HPM_P2
2021/09/24 00:01:01;;;;;;;6.13;5.63;;;18.40;35.70;;;;;;10459336;28;20213;-75
2021/09/24 00:06:05;;;;;;;5.73;5.23;;;18.30;36.00;;;;;;10462021;28;20235;-76
2021/09/24 00:11:08;;;;;;;6.53;5.97;;;18.30;35.70;;;;;;10463879;28;20250;-75
2021/09/24 00:16:13;;;;;;;6.87;5.73;;;18.30;35.60;;;;;;10464925;28;20266;-75
2021/09/24 00:21:16;;;;;;;5.37;4.87;;;18.30;36.00;;;;;;10463100;28;20778;-76
2021/09/24 00:26:19;;;;;;;6.37;5.80;;;18.30;35.70;;;;;;10468058;28;20984;-76
2021/09/24 00:31:25;;;;;;;5.70;5.20;;;18.30;35.80;;;;;;10462779;28;20236;-74
2021/09/24 00:36:28;;;;;;;5.77;5.27;;;18.30;36.00;;;;;;10462725;28;20228;-75
2021/09/24 00:41:31;;;;;;;6.43;5.77;;;18.20;35.70;;;;;;10467370;28;20235;-75
2021/09/24 00:46:36;;;;;;;6.23;5.73;;;18.20;35.70;;;;;;10464962;28;20294;-75
2021/09/24 00:51:54;;;;;;;6.20;5.37;;;18.20;36.00;;;;;;10462309;28;20228;-75
2021/09/24 00:56:57;;;;;;;6.37;5.80;;;18.10;35.80;;;;;;10461169;28;20220;-76
2021/09/24 01:02:02;;;;;;;5.77;5.00;;;18.00;35.80;;;;;;10472513;28;20316;-76
2021/09/24 01:07:06;;;;;;;5.33;4.93;;;18.00;36.20;;;;;;10462102;28;20227;-75
2021/09/24 01:12:10;;;;;;;5.30;4.80;;;18.00;36.00;;;;;;10472920;28;20239;-75
2021/09/24 01:17:15;;;;;;;5.40;4.90;;;17.90;36.20;;;;;;10472911;28;20224;-76
2021/09/24 01:22:20;;;;;;;4.90;4.50;;;17.90;36.30;;;;;;10472368;28;20313;-75
2021/09/24 01:27:24;;;;;;;6.97;6.30;;;17.80;36.40;;;;;;10476563;28;20239;-75
2021/09/24 01:32:27;;;;;;;5.57;5.07;;;17.80;36.30;;;;;;10470572;28;20320;-75
2021/09/24 01:37:32;;;;;;;5.73;5.30;;;17.80;36.20;;;;;;10468132;28;20248;-75
2021/09/24 01:42:36;;;;;;;6.80;6.20;;;17.80;36.70;;;;;;10468664;28;20584;-76
2021/09/24 01:47:39;;;;;;;6.83;6.13;;;17.80;36.40;;;;;;10462872;28;20244;-73
2021/09/24 01:52:44;;;;;;;7.33;6.67;;;17.80;36.50;;;;;;10472573;28;20310;-75
2021/09/24 01:57:47;;;;;;;7.03;6.33;;;17.70;36.90;;;;;;10472985;28;20270;-75
2021/09/24 02:02:50;;;;;;;7.10;6.50;;;17.70;36.80;;;;;;10468066;28;20259;-76
2021/09/24 02:07:56;;;;;;;7.10;6.23;;;17.60;36.80;;;;;;10467501;28;20327;-75
2021/09/24 02:13:01;;;;;;;6.80;6.30;;;17.60;37.20;;;;;;10473879;28;20232;-75
2021/09/24 02:18:04;;;;;;;7.43;6.73;;;17.60;36.90;;;;;;10467865;28;20227;-75
2021/09/24 02:23:09;;;;;;;7.50;6.83;;;17.50;36.90;;;;;;10464065;28;20922;-75
2021/09/24 02:28:13;;;;;;;7.43;6.77;;;17.60;37.40;;;;;;10464410;28;20228;-75
2021/09/24 02:33:16;;;;;;;7.00;6.40;;;17.50;37.00;;;;;;10461675;28;20228;-76
2021/09/24 02:38:21;;;;;;;7.50;6.73;;;17.40;37.10;;;;;;10467509;28;20225;-75
2021/09/24 02:43:24;;;;;;;6.90;6.20;;;17.40;37.60;;;;;;10469826;28;20233;-75
2021/09/24 02:48:27;;;;;;;7.73;7.03;;;17.40;37.40;;;;;;10463633;28;20311;-75
2021/09/24 02:53:32;;;;;;;7.87;6.93;;;17.30;37.30;;;;;;10461985;28;20256;-76
2021/09/24 02:58:35;;;;;;;7.50;6.80;;;17.30;37.60;;;;;;10465215;28;20312;-75
2021/09/24 03:03:38;;;;;;;8.00;7.20;;;17.30;37.40;;;;;;10461952;28;20278;-76
2021/09/24 03:08:43;;;;;;;7.33;6.63;;;17.30;37.50;;;;;;10461533;28;20312;-76
2021/09/24 03:13:47;;;;;;;7.07;6.47;;;17.30;37.80;;;;;;10463349;28;20320;-76
2021/09/24 03:18:50;;;;;;;7.50;6.73;;;17.20;37.60;;;;;;10472346;28;20225;-75
2021/09/24 03:23:55;;;;;;;7.20;6.60;;;17.20;37.60;;;;;;10467052;28;20640;-75
2021/09/24 03:28:58;;;;;;;6.97;6.37;;;17.20;38.10;;;;;;10466869;28;20311;-75
2021/09/24 03:34:01;;;;;;;7.60;6.90;;;17.10;37.70;;;;;;10468739;28;20371;-75
2021/09/24 03:39:11;;;;;;;7.50;6.80;;;17.10;37.90;;;;;;10464367;28;20283;-74
2021/09/24 03:44:14;;;;;;;7.40;6.70;;;17.10;38.60;;;;;;10464522;28;20283;-75
2021/09/24 03:49:17;;;;;;;7.43;6.63;;;17.10;37.90;;;;;;10462939;28;20228;-75
2021/09/24 03:54:22;;;;;;;6.87;6.27;;;17.10;37.80;;;;;;10464388;28;21653;-75
2021/09/24 03:59:26;;;;;;;7.77;7.00;;;17.10;38.20;;;;;;10469031;28;20220;-75
2021/09/24 04:04:29;;;;;;;7.37;6.67;;;17.00;37.80;;;;;;10467292;28;20926;-75
2021/09/24 04:09:33;;;;;;;7.67;7.03;;;17.00;38.00;;;;;;10468482;28;20259;-75
2021/09/24 04:14:37;;;;;;;7.63;6.93;;;17.00;38.20;;;;;;10462195;28;20347;-75
2021/09/24 04:19:40;;;;;;;7.10;6.50;;;17.00;38.00;;;;;;10469758;28;20250;-76
2021/09/24 04:24:44;;;;;;;7.00;6.40;;;17.00;38.00;;;;;;10462183;28;20679;-76
2021/09/24 04:29:48;;;;;;;7.20;6.60;;;17.00;38.40;;;;;;10461864;28;20758;-75
2021/09/24 04:34:51;;;;;;;7.50;6.80;;;17.00;38.10;;;;;;10461445;28;20662;-75
2021/09/24 04:39:56;;;;;;;7.03;6.37;;;17.10;38.10;;;;;;10457830;28;20231;-74
2021/09/24 04:44:59;;;;;;;7.30;6.60;;;17.10;38.40;;;;;;10463749;28;20228;-75
2021/09/24 04:50:02;;;;;;;7.23;6.53;;;17.00;38.10;;;;;;10468037;28;20684;-75
2021/09/24 04:55:08;;;;;;;7.37;6.77;;;17.00;38.20;;;;;;10467544;28;20227;-75
2021/09/24 05:00:13;;;;;;;7.60;6.93;;;17.00;38.70;;;;;;10472127;28;20227;-75
2021/09/24 05:05:16;;;;;;;7.47;6.77;;;16.90;38.40;;;;;;10471922;28;20248;-75
2021/09/24 05:10:21;;;;;;;7.27;6.60;;;16.90;38.20;;;;;;10469460;28;20282;-74
2021/09/24 05:15:24;;;;;;;7.07;6.47;;;16.80;38.70;;;;;;10470634;28;20239;-74
2021/09/24 05:20:29;;;;;;;7.33;6.27;;;16.80;38.50;;;;;;10472100;28;20601;-74
2021/09/24 05:25:34;;;;;;;7.10;6.50;;;16.70;38.60;;;;;;10468626;28;20228;-75
2021/09/24 05:30:37;;;;;;;6.93;6.43;;;16.70;38.90;;;;;;10466801;28;20229;-75
2021/09/24 05:35:40;;;;;;;6.73;6.23;;;16.70;38.80;;;;;;10471682;28;20224;-75
2021/09/24 05:40:45;;;;;;;7.43;6.70;;;16.70;38.90;;;;;;10476464;28;20239;-75
2021/09/24 05:45:48;;;;;;;6.97;6.37;;;16.70;39.30;;;;;;10474386;28;20244;-75
2021/09/24 05:50:51;;;;;;;7.43;6.23;;;16.70;39.00;;;;;;10468040;28;20229;-76
2021/09/24 05:55:56;;;;;;;7.57;6.87;;;16.70;39.10;;;;;;10464434;28;20228;-75
2021/09/24 06:01:00;;;;;;;6.77;6.27;;;16.70;39.70;;;;;;10465614;28;20266;-75
2021/09/24 06:06:03;;;;;;;7.20;6.60;;;16.80;39.30;;;;;;10463293;28;20228;-74
2021/09/24 06:11:09;;;;;;;6.67;6.07;;;16.90;39.40;;;;;;10465612;28;20224;-76
2021/09/24 06:16:13;;;;;;;6.10;5.50;;;16.90;39.60;;;;;;10458649;28;20236;-75
2021/09/24 06:21:17;;;;;;;6.57;5.97;;;17.00;39.60;;;;;;10459824;28;20225;-76
2021/09/24 06:26:22;;;;;;;6.63;6.03;;;17.00;39.50;;;;;;10456604;28;20308;-75
2021/09/24 06:31:25;;;;;;;6.43;5.93;;;17.00;39.80;;;;;;10460862;28;20310;-75
2021/09/24 06:36:29;;;;;;;6.93;6.03;;;17.10;39.70;;;;;;10462736;28;20232;-74
2021/09/24 06:41:33;;;;;;;7.23;6.03;;;17.10;39.70;;;;;;10460497;28;20788;-72
2021/09/24 06:46:37;;;;;;;6.50;5.90;;;17.20;40.20;;;;;;10461475;28;20234;-75
2021/09/24 06:51:40;;;;;;;6.23;5.73;;;17.20;39.70;;;;;;10460491;28;20220;-76
2021/09/24 06:56:45;;;;;;;5.70;5.20;;;17.30;39.90;;;;;;10459529;28;20311;-76
2021/09/24 07:01:49;;;;;;;6.30;5.70;;;17.40;39.70;;;;;;10463897;28;20221;-75
2021/09/24 07:06:52;;;;;;;9.67;8.43;;;17.60;39.70;;;;;;10458240;28;20224;-75
2021/09/24 07:11:57;;;;;;;8.47;7.67;;;17.70;39.70;;;;;;10465522;28;20232;-75
2021/09/24 07:17:02;;;;;;;8.50;7.30;;;17.80;39.80;;;;;;10462643;28;20225;-75
2021/09/24 07:22:05;;;;;;;10.17;9.17;;;17.80;39.80;;;;;;10456991;28;20224;-75
2021/09/24 07:27:10;;;;;;;9.50;7.90;;;18.00;39.80;;;;;;10458561;28;20227;-75
2021/09/24 07:32:13;;;;;;;6.70;6.00;;;18.10;40.00;;;;;;10461661;28;20252;-75
2021/09/24 07:37:16;;;;;;;6.53;5.60;;;18.20;39.60;;;;;;10460304;28;20580;-75
2021/09/24 07:42:21;;;;;;;6.73;6.13;;;18.30;39.60;;;;;;10460086;28;20239;-75
2021/09/24 07:47:24;;;;;;;6.33;5.80;;;18.40;39.80;;;;;;10463673;28;20235;-77
2021/09/24 07:52:28;;;;;;;5.77;5.27;;;18.60;39.70;;;;;;10465101;28;20305;-75
2021/09/24 07:57:34;;;;;;;6.23;5.63;;;18.70;39.70;;;;;;10466932;28;20228;-76
2021/09/24 08:02:37;;;;;;;6.03;5.47;;;18.80;39.70;;;;;;10469805;28;20232;-75
2021/09/24 08:07:41;;;;;;;5.73;5.23;;;18.90;39.70;;;;;;10462582;28;20227;-73
2021/09/24 08:12:45;;;;;;;5.53;5.00;;;19.10;39.70;;;;;;10461321;28;20254;-75
2021/09/24 08:17:50;;;;;;;5.27;4.77;;;19.30;39.70;;;;;;10460671;28;20289;-75
2021/09/24 08:22:53;;;;;;;6.47;5.20;;;19.50;39.50;;;;;;10458264;28;20735;-77
2021/09/24 08:27:58;;;;;;;5.10;4.70;;;19.70;39.20;;;;;;10472669;28;20225;-75
2021/09/24 08:33:02;;;;;;;5.00;4.60;;;19.90;38.90;;;;;;10479333;28;20233;-77
2021/09/24 08:38:05;;;;;;;4.80;4.40;;;20.00;38.70;;;;;;10479689;28;20241;-77
2021/09/24 08:43:11;;;;;;;5.00;4.60;;;20.20;39.20;;;;;;10469291;28;20250;-76
2021/09/24 08:48:16;;;;;;;5.57;4.67;;;20.40;39.00;;;;;;10466961;28;20221;-75
2021/09/24 08:53:21;;;;;;;5.23;4.30;;;20.50;38.50;;;;;;10460790;28;20236;-76
2021/09/24 08:58:26;;;;;;;4.57;4.17;;;20.80;38.40;;;;;;10445181;28;20304;-76
2021/09/24 09:03:38;;;;;;;4.10;3.63;;;20.90;37.90;;;;;;10455227;28;20723;-76
2021/09/24 09:08:42;;;;;;;4.67;4.20;;;21.10;37.50;;;;;;10455979;28;20220;-76
2021/09/24 09:13:49;;;;;;;4.20;3.80;;;21.30;37.60;;;;;;10451626;28;20229;-75
2021/09/24 09:19:08;;;;;;;4.00;3.67;;;21.30;36.50;;;;;;10451613;28;20233;-76
2021/09/24 09:24:18;;;;;;;5.73;4.10;;;21.40;37.20;;;;;;10451453;28;20224;-76
2021/09/24 09:29:23;;;;;;;4.93;3.90;;;21.50;36.70;;;;;;10450103;28;21456;-76
2021/09/24 09:34:33;;;;;;;3.97;3.57;;;21.60;37.00;;;;;;10457801;28;20232;-75
2021/09/24 09:39:37;;;;;;;3.40;3.10;;;21.70;37.10;;;;;;10459587;28;20220;-75
2021/09/24 09:44:42;;;;;;;3.20;2.90;;;21.90;37.20;;;;;;10457763;28;20778;-77
2021/09/24 09:49:51;;;;;;;2.93;2.73;;;22.00;36.70;;;;;;10463278;28;21022;-77
2021/09/24 09:55:00;;;;;;;3.20;2.80;;;22.20;36.70;;;;;;10464390;28;20232;-76
2021/09/24 10:00:09;;;;;;;3.10;2.80;;;22.30;36.00;;;;;;10471531;28;20212;-77
2021/09/24 10:05:32;;;;;;;2.70;2.50;;;22.40;35.60;;;;;;10466374;28;20232;-76
2021/09/24 10:10:35;;;;;;;3.30;3.10;;;22.50;35.80;;;;;;10467958;28;20261;-76
2021/09/24 10:15:40;;;;;;;2.93;2.73;;;22.50;35.50;;;;;;10467536;28;20608;-76
2021/09/24 10:20:43;;;;;;;2.93;2.70;;;22.50;34.80;;;;;;10466297;28;20225;-76
2021/09/24 10:25:51;;;;;;;2.73;2.63;;;22.50;35.80;;;;;;10463931;28;20227;-76
2021/09/24 10:30:58;;;;;;;3.33;2.70;;;22.60;35.10;;;;;;10470962;28;20240;-76
2021/09/24 10:36:01;;;;;;;2.77;2.40;;;22.70;34.70;;;;;;10464781;28;20247;-77
2021/09/24 10:41:07;;;;;;;2.60;2.37;;;22.90;35.10;;;;;;10462705;28;20221;-76
2021/09/24 10:46:37;;;;;;;2.97;2.43;;;22.90;34.90;;;;;;10468316;28;20239;-76
2021/09/24 10:51:47;;;;;;;2.40;2.20;;;23.00;33.70;;;;;;10464663;28;20224;-75
2021/09/24 10:57:00;;;;;;;2.87;2.20;;;23.00;33.80;;;;;;10465703;28;20232;-76
2021/09/24 11:02:39;;;;;;;2.67;2.30;;;23.10;32.40;;;;;;10467487;28;20228;-76
2021/09/24 11:07:42;;;;;;;2.10;2.00;;;23.10;33.50;;;;;;10452530;28;20220;-76
2021/09/24 11:13:09;;;;;;;2.07;1.83;;;23.00;33.70;;;;;;10449783;28;20597;-75
2021/09/24 11:18:46;;;;;;;2.90;1.93;;;23.00;33.30;;;;;;10444593;28;20224;-76
2021/09/24 11:23:51;;;;;;;1.77;1.67;;;23.00;32.30;;;;;;10448008;28;20224;-75
2021/09/24 11:29:06;;;;;;;2.13;1.77;;;22.90;33.10;;;;;;10449432;28;20726;-75
2021/09/24 11:34:10;;;;;;;2.10;1.93;;;22.90;32.70;;;;;;10458781;28;20228;-75
2021/09/24 11:39:14;;;;;;;2.50;2.30;;;23.00;33.00;;;;;;10455964;28;20367;-74
2021/09/24 11:44:17;;;;;;;2.70;2.50;;;23.00;33.50;;;;;;10456699;28;20251;-75
2021/09/24 11:49:21;;;;;;;2.47;2.37;;;23.10;33.50;;;;;;10455101;28;20216;-77
2021/09/24 11:54:25;;;;;;;3.87;2.30;;;23.20;32.80;;;;;;10457502;28;20228;-75
2021/09/24 11:59:28;;;;;;;2.63;2.50;;;23.20;32.90;;;;;;10459622;28;20650;-77
2021/09/24 12:04:33;;;;;;;2.40;2.20;;;23.30;32.50;;;;;;10478084;28;20575;-77
2021/09/24 12:09:37;;;;;;;2.20;2.10;;;23.40;32.40;;;;;;10474599;28;20219;-77
2021/09/24 12:14:40;;;;;;;2.40;2.20;;;23.50;32.60;;;;;;10470931;28;20235;-77
2021/09/24 12:19:45;;;;;;;2.33;2.23;;;23.60;32.40;;;;;;10469616;28;20235;-77
2021/09/24 12:24:49;;;;;;;2.33;2.13;;;23.70;31.50;;;;;;10470797;28;20231;-77
2021/09/24 12:29:53;;;;;;;2.20;1.97;;;23.70;32.20;;;;;;10467803;28;20327;-78
2021/09/24 12:35:04;;;;;;;2.20;2.10;;;23.80;32.00;;;;;;10478262;28;20221;-77
2021/09/24 12:40:11;;;;;;;3.33;2.13;;;23.90;30.50;;;;;;10487570;28;20228;-77
2021/09/24 12:45:24;;;;;;;2.03;1.93;;;23.90;31.10;;;;;;10489090;28;20293;-77
2021/09/24 12:50:28;;;;;;;2.30;2.10;;;23.90;30.70;;;;;;10481780;28;20228;-78
2021/09/24 12:55:32;;;;;;;2.20;2.10;;;23.90;30.70;;;;;;10474501;28;20224;-77
2021/09/24 13:00:36;;;;;;;2.20;2.10;;;23.90;31.20;;;;;;10486892;28;20812;-78
2021/09/24 13:05:41;;;;;;;2.13;1.90;;;24.00;30.60;;;;;;10483621;28;20640;-78
2021/09/24 13:10:44;;;;;;;2.00;1.90;;;23.90;30.30;;;;;;10493700;28;20241;-77
2021/09/24 13:15:48;;;;;;;2.20;2.10;;;23.90;30.30;;;;;;10487320;28;20224;-77
2021/09/24 13:20:53;;;;;;;2.33;2.20;;;23.90;30.50;;;;;;10479708;28;20855;-76
2021/09/24 13:25:59;;;;;;;2.60;2.40;;;23.90;29.90;;;;;;10471733;28;20787;-77
2021/09/24 13:31:02;;;;;;;2.60;2.20;;;23.90;30.20;;;;;;10480883;28;20216;-76
2021/09/24 13:36:07;;;;;;;2.30;2.10;;;23.90;30.10;;;;;;10479709;28;20251;-77
2021/09/24 13:41:10;;;;;;;2.43;2.20;;;24.00;29.40;;;;;;10474162;28;20319;-77
2021/09/24 13:46:14;;;;;;;3.53;2.50;;;24.00;29.70;;;;;;10470308;28;20606;-75
2021/09/24 13:51:18;;;;;;;2.43;2.23;;;24.10;29.80;;;;;;10465805;28;20236;-76
2021/09/24 13:56:21;;;;;;;2.50;2.30;;;24.10;29.50;;;;;;10463610;28;20237;-76
2021/09/24 14:01:25;;;;;;;2.60;2.40;;;24.10;29.70;;;;;;10475405;28;20233;-77
2021/09/24 14:06:30;;;;;;;3.20;2.60;;;24.20;29.70;;;;;;10469065;28;20225;-76
2021/09/24 14:11:33;;;;;;;2.70;2.50;;;24.20;28.70;;;;;;10469881;28;20222;-75
2021/09/24 14:16:37;;;;;;;3.17;2.57;;;24.20;28.90;;;;;;10465628;28;20306;-76
2021/09/24 14:21:41;;;;;;;2.40;2.30;;;24.30;29.40;;;;;;10468575;28;20788;-76
2021/09/24 14:26:45;;;;;;;2.57;2.37;;;24.30;29.00;;;;;;10468696;28;21049;-76
2021/09/24 14:31:48;;;;;;;2.97;2.77;;;24.30;29.10;;;;;;10470232;28;20231;-76
2021/09/24 14:36:53;;;;;;;2.80;2.60;;;24.30;28.80;;;;;;10468869;28;20264;-75
2021/09/24 14:41:56;;;;;;;2.80;2.60;;;24.30;28.20;;;;;;10470393;28;20774;-76
2021/09/24 14:46:59;;;;;;;4.30;2.70;;;24.30;28.80;;;;;;10467168;28;20225;-76
2021/09/24 14:52:04;;;;;;;2.87;2.67;;;24.30;28.80;;;;;;10462097;28;20233;-76
2021/09/24 14:57:07;;;;;;;3.17;2.87;;;24.30;28.70;;;;;;10465400;28;20243;-76
2021/09/24 15:02:11;;;;;;;5.17;2.80;;;24.30;28.60;;;;;;10481376;28;20333;-76
2021/09/24 15:07:16;;;;;;;6.03;2.83;;;24.30;28.80;;;;;;10462421;28;20216;-76
2021/09/24 15:12:20;;;;;;;3.23;2.93;;;24.30;28.30;;;;;;10471401;28;20274;-76
2021/09/24 15:17:23;;;;;;;5.40;3.00;;;24.30;28.50;;;;;;10467308;28;20239;-76
2021/09/24 15:22:28;;;;;;;4.30;3.00;;;24.30;28.50;;;;;;10463311;28;20238;-76
2021/09/24 15:27:31;;;;;;;3.57;3.27;;;24.30;28.20;;;;;;10471306;28;20220;-76
2021/09/24 15:32:35;;;;;;;4.73;3.30;;;24.30;28.30;;;;;;10467308;28;20236;-76
2021/09/24 15:37:40;;;;;;;3.17;2.80;;;24.30;28.30;;;;;;10469769;28;20229;-76
2021/09/24 15:42:44;;;;;;;3.23;3.00;;;24.30;28.20;;;;;;10465423;28;20238;-76
2021/09/24 15:47:48;;;;;;;5.00;3.10;;;24.40;28.30;;;;;;10463872;28;20783;-76
2021/09/24 15:52:53;;;;;;;4.43;2.83;;;24.40;28.30;;;;;;10465266;28;20258;-76
2021/09/24 15:57:56;;;;;;;3.43;3.00;;;24.40;28.30;;;;;;10469178;28;20224;-77
2021/09/24 16:02:59;;;;;;;3.50;3.20;;;24.50;28.40;;;;;;10467721;28;20225;-78
2021/09/24 16:08:05;;;;;;;3.23;2.87;;;24.40;28.30;;;;;;10467273;28;20224;-77
2021/09/24 16:13:08;;;;;;;3.13;2.83;;;24.50;28.40;;;;;;10468517;28;20217;-76
2021/09/24 16:18:12;;;;;;;3.57;3.00;;;24.50;28.50;;;;;;10468686;28;20793;-76
2021/09/24 16:23:16;;;;;;;3.20;3.00;;;24.50;28.90;;;;;;10468347;28;20228;-77
2021/09/24 16:28:19;;;;;;;3.23;2.93;;;24.50;28.90;;;;;;10470107;28;20613;-77
2021/09/24 16:33:23;;;;;;;3.10;2.80;;;24.50;29.10;;;;;;10468953;28;20233;-77
2021/09/24 16:38:27;;;;;;;3.27;3.07;;;24.40;29.20;;;;;;10468089;28;20255;-77
2021/09/24 16:43:31;;;;;;;3.27;3.07;;;24.40;29.20;;;;;;10476367;28;20255;-76
2021/09/24 16:48:34;;;;;;;3.90;3.50;;;24.30;29.40;;;;;;10478293;28;20240;-76
2021/09/24 16:53:39;;;;;;;4.27;3.53;;;24.20;29.50;;;;;;10479086;28;20228;-77
2021/09/24 16:58:42;;;;;;;3.60;3.30;;;24.10;29.70;;;;;;10474926;28;20313;-76
2021/09/24 17:03:45;;;;;;;4.33;2.93;;;24.10;29.80;;;;;;10472030;28;20232;-77
2021/09/24 17:08:50;;;;;;;3.60;3.30;;;24.00;30.00;;;;;;10474605;28;20716;-76
2021/09/24 17:13:55;;;;;;;4.83;3.27;;;23.90;29.90;;;;;;10475517;28;20293;-77
2021/09/24 17:18:59;;;;;;;3.30;3.10;;;23.90;29.90;;;;;;10474809;28;20315;-77
2021/09/24 17:24:03;;;;;;;3.40;3.10;;;23.80;29.90;;;;;;10474360;28;20224;-77
2021/09/24 17:29:06;;;;;;;3.67;3.37;;;23.70;30.00;;;;;;10474866;28;20228;-76
2021/09/24 17:34:10;;;;;;;4.10;3.23;;;23.60;30.00;;;;;;10473586;28;20246;-77
2021/09/24 17:39:14;;;;;;;3.40;3.10;;;23.40;30.00;;;;;;10471501;28;20237;-75
2021/09/24 17:44:18;;;;;;;6.40;3.80;;;23.30;30.20;;;;;;10471474;28;20614;-77
2021/09/24 17:49:21;;;;;;;3.83;3.53;;;23.20;30.20;;;;;;10473067;28;20258;-75
2021/09/24 17:54:26;;;;;;;3.80;3.50;;;23.00;30.30;;;;;;10463646;28;20382;-76
2021/09/24 17:59:29;;;;;;;3.13;2.83;;;22.90;30.50;;;;;;10475781;28;20230;-76
2021/09/24 18:04:32;;;;;;;3.60;3.30;;;22.90;30.40;;;;;;10476097;28;20644;-76
2021/09/24 18:09:37;;;;;;;3.67;3.37;;;22.70;30.30;;;;;;10473314;28;20707;-76
2021/09/24 18:14:40;;;;;;;3.97;3.67;;;22.70;30.60;;;;;;10465920;28;20240;-76
2021/09/24 18:19:44;;;;;;;5.53;5.03;;;22.50;31.30;;;;;;10466895;28;20350;-75
2021/09/24 18:24:48;;;;;;;8.23;7.23;;;22.40;30.50;;;;;;10464442;28;20225;-76
2021/09/24 18:29:52;;;;;;;9.90;9.10;;;22.30;30.70;;;;;;10470587;28;20228;-76
2021/09/24 18:34:55;;;;;;;12.33;11.20;;;22.10;30.70;;;;;;10465510;28;20228;-76
2021/09/24 18:40:00;;;;;;;11.80;10.90;;;21.90;30.80;;;;;;10467242;28;20236;-76
2021/09/24 18:45:05;;;;;;;10.00;9.10;;;21.70;31.00;;;;;;10465419;28;20713;-76
2021/09/24 18:50:11;;;;;;;7.57;6.97;;;21.70;31.20;;;;;;10463576;28;20229;-75
2021/09/24 18:55:16;;;;;;;24.40;16.93;;;21.60;31.20;;;;;;10465675;28;20721;-75
2021/09/24 19:00:22;;;;;;;15.90;11.47;;;21.50;31.50;;;;;;10468233;28;20233;-75
2021/09/24 19:05:25;;;;;;;16.00;11.50;;;21.40;31.30;;;;;;10469113;28;20229;-75
2021/09/24 19:10:30;;;;;;;13.83;10.93;;;21.20;31.20;;;;;;10465299;28;20231;-75
2021/09/24 19:15:36;;;;;;;10.73;8.60;;;21.10;31.60;;;;;;10472183;28;20777;-75
2021/09/24 19:20:39;;;;;;;9.97;8.00;;;21.00;31.80;;;;;;10468857;28;20247;-76
2021/09/24 19:25:44;;;;;;;8.03;6.93;;;20.90;31.70;;;;;;10462750;28;20737;-76
2021/09/24 19:30:47;;;;;;;7.67;6.97;;;20.80;32.10;;;;;;10470327;28;20235;-75
2021/09/24 19:35:51;;;;;;;6.90;6.23;;;20.80;31.90;;;;;;10463402;28;20289;-75
2021/09/24 19:40:55;;;;;;;7.10;6.40;;;20.70;31.80;;;;;;10467681;28;20237;-75
2021/09/24 19:45:59;;;;;;;7.77;7.07;;;20.60;32.10;;;;;;10465753;28;20228;-75
2021/09/24 19:51:02;;;;;;;7.60;6.90;;;20.50;31.90;;;;;;10465838;28;20221;-74
2021/09/24 19:56:07;;;;;;;6.93;6.33;;;20.40;32.00;;;;;;10467406;28;20224;-74
2021/09/24 20:01:13;;;;;;;6.80;6.20;;;20.30;32.20;;;;;;10472195;28;20235;-75
2021/09/24 20:06:17;;;;;;;6.03;5.53;;;20.20;32.10;;;;;;10471165;28;20231;-75
2021/09/24 20:11:22;;;;;;;7.67;6.97;;;20.20;32.20;;;;;;10474630;28;20224;-75
2021/09/24 20:16:25;;;;;;;6.03;5.53;;;20.10;32.50;;;;;;10471838;28;20236;-75
2021/09/24 20:21:30;;;;;;;5.50;4.97;;;20.00;32.30;;;;;;10467734;28;20279;-73
2021/09/24 20:26:35;;;;;;;7.30;6.20;;;19.90;32.30;;;;;;10468943;28;20902;-75
2021/09/24 20:31:39;;;;;;;6.73;6.03;;;19.80;32.50;;;;;;10467055;28;20227;-74
2021/09/24 20:36:42;;;;;;;7.33;6.63;;;19.60;32.10;;;;;;10475195;28;20244;-75
2021/09/24 20:41:47;;;;;;;7.03;6.40;;;19.50;32.60;;;;;;10471929;28;20319;-75
2021/09/24 20:46:50;;;;;;;5.93;5.37;;;19.20;32.90;;;;;;10471950;28;20245;-75
2021/09/24 20:51:53;;;;;;;6.73;6.13;;;19.00;32.60;;;;;;10471097;28;21737;-74
2021/09/24 20:56:58;;;;;;;5.27;4.87;;;18.80;33.00;;;;;;10468387;28;20216;-75
2021/09/24 21:02:01;;;;;;;6.03;5.53;;;18.70;33.60;;;;;;10468232;28;20217;-75
2021/09/24 21:07:05;;;;;;;7.83;6.80;;;18.70;33.30;;;;;;10469295;28;21128;-75
2021/09/24 21:12:10;;;;;;;7.53;6.47;;;18.70;33.50;;;;;;10467060;28;20236;-76
2021/09/24 21:17:13;;;;;;;5.87;5.30;;;18.60;33.70;;;;;;10466842;28;20216;-77
2021/09/24 21:22:17;;;;;;;7.10;6.50;;;18.60;33.30;;;;;;10465674;28;20727;-76
2021/09/24 21:27:22;;;;;;;6.77;6.27;;;18.50;33.30;;;;;;10464175;28;20560;-76
2021/09/24 21:32:25;;;;;;;6.13;5.63;;;18.50;33.80;;;;;;10469137;28;20254;-76
2021/09/24 21:37:28;;;;;;;6.07;5.57;;;18.40;33.60;;;;;;10471121;28;20232;-74
2021/09/24 21:42:33;;;;;;;7.10;6.50;;;18.40;33.80;;;;;;10465822;28;20220;-76
2021/09/24 21:47:37;;;;;;;6.87;6.30;;;18.40;34.30;;;;;;10470090;28;20684;-74
2021/09/24 21:52:40;;;;;;;6.40;5.90;;;18.40;34.00;;;;;;10472126;28;20311;-75
2021/09/24 21:57:45;;;;;;;6.13;5.63;;;18.30;34.60;;;;;;10467777;28;20228;-75
2021/09/24 22:02:49;;;;;;;6.40;5.90;;;18.30;34.40;;;;;;10462317;28;20688;-75
2021/09/24 22:07:53;;;;;;;6.93;6.30;;;18.20;34.10;;;;;;10467013;28;20244;-75
2021/09/24 22:12:57;;;;;;;7.27;6.60;;;18.20;34.10;;;;;;10467859;28;20625;-77
2021/09/24 22:18:01;;;;;;;6.23;5.73;;;18.00;34.70;;;;;;10462824;28;20228;-74
2021/09/24 22:23:04;;;;;;;6.90;6.20;;;17.90;34.30;;;;;;10462616;28;20803;-75
2021/09/24 22:28:09;;;;;;;7.67;6.73;;;17.80;34.60;;;;;;10470934;28;20229;-75
2021/09/24 22:33:12;;;;;;;5.93;5.43;;;17.60;34.40;;;;;;10469989;28;20235;-75
2021/09/24 22:38:15;;;;;;;6.57;6.07;;;17.50;34.30;;;;;;10467477;28;20231;-75
2021/09/24 22:43:20;;;;;;;6.57;6.00;;;17.50;34.30;;;;;;10466031;28;20224;-74
2021/09/24 22:48:23;;;;;;;7.03;6.47;;;17.40;34.30;;;;;;10469218;28;20250;-75
2021/09/24 22:53:27;;;;;;;7.93;6.80;;;17.40;34.20;;;;;;10466370;28;20224;-75
2021/09/24 22:58:32;;;;;;;7.63;6.87;;;17.30;34.10;;;;;;10467994;28;20232;-75
2021/09/24 23:03:35;;;;;;;7.50;6.03;;;17.20;34.50;;;;;;10469218;28;20688;-74
2021/09/24 23:08:39;;;;;;;6.87;6.27;;;17.00;34.00;;;;;;10465769;28;20231;-75
2021/09/24 23:13:43;;;;;;;6.43;5.93;;;16.90;34.80;;;;;;10463246;28;20225;-75
2021/09/24 23:18:46;;;;;;;6.33;5.73;;;16.80;35.40;;;;;;10470683;28;20242;-74
2021/09/24 23:23:49;;;;;;;7.37;6.77;;;16.80;35.10;;;;;;10465344;28;20232;-75
2021/09/24 23:28:54;;;;;;;6.67;6.07;;;16.80;35.10;;;;;;10464983;28;20227;-75
2021/09/24 23:33:57;;;;;;;7.13;6.43;;;16.80;35.20;;;;;;10464477;28;20251;-75
2021/09/24 23:39:00;;;;;;;6.57;6.00;;;16.80;34.90;;;;;;10462439;28;20243;-75
2021/09/24 23:44:05;;;;;;;7.00;6.40;;;16.80;35.00;;;;;;10460214;28;20227;-75
2021/09/24 23:49:08;;;;;;;7.57;6.90;;;16.80;35.60;;;;;;10464812;28;20231;-75
2021/09/24 23:54:12;;;;;;;6.63;5.60;;;16.80;35.20;;;;;;10463355;28;20235;-75
2021/09/24 23:59:16;;;;;;;6.37;5.87;;;16.80;35.20;;;;;;10463413;28;20229;-74
